| time (UTC) | temp C | wind direction | speed KPH | gust KPH | rain 1hr cm | rain 24hr cm | rain mn cm | humidity % | barometer mb |
| 20260510203605 | 15 | 353 | 6.4 | 19.3 | 0.00 | 0.00 | 0.00 | 51 | 1016.7 |
| 20260510202823 | 16 | 18 | 6.4 | 14.5 | 0.00 | 0.00 | 0.00 | 48 | 1016.8 |
| 20260510200605 | 16 | 13 | 4.8 | 12.9 | 0.00 | 0.00 | 0.00 | 48 | 1016.8 |
| 20260510195103 | 16 | 327 | 6.4 | 12.9 | 0.00 | 0.00 | 0.00 | 48 | 1016.9 |
| 20260510193601 | 15 | 50 | 4.8 | 14.5 | 0.00 | 0.00 | 0.00 | 47 | 1016.9 |
| 20260510192100 | 15 | 312 | 6.4 | 14.5 | 0.00 | 0.00 | 0.00 | 49 | 1017.1 |
| 20260510190600 | 15 | 27 | 8.0 | 19.3 | 0.00 | 0.00 | 0.00 | 48 | 1016.7 |
| 20260510185752 | 15 | 192 | 4.8 | 16.1 | 0.00 | 0.00 | 0.00 | 49 | 1016.7 |
| 20260510183601 | 15 | 12 | 3.2 | 9.7 | 0.00 | 0.00 | 0.00 | 50 | 1016.7 |
| 20260510182101 | 15 | 255 | 8.0 | 17.7 | 0.00 | 0.00 | 0.00 | 48 | 1016.7 |
| 20260510180600 | 15 | 20 | 6.4 | 17.7 | 0.00 | 0.00 | 0.00 | 53 | 1016.6 |
| 20260510175058 | 15 | 20 | 6.4 | 20.9 | 0.00 | 0.00 | 0.00 | 54 | 1016.2 |
| 20260510173551 | 15 | 55 | 4.8 | 17.7 | 0.00 | 0.00 | 0.00 | 57 | 1016.3 |
| 20260510172050 | 15 | 27 | 11.3 | 20.9 | 0.00 | 0.00 | 0.00 | 57 | 1016.5 |
| 20260510170551 | 15 | 324 | 6.4 | 16.1 | 0.00 | 0.00 | 0.00 | 59 | 1016.6 |
| 20260510165051 | 15 | 304 | 8.0 | 14.5 | 0.00 | 0.00 | 0.00 | 59 | 1016.7 |
| 20260510163550 | 14 | 340 | 6.4 | 16.1 | 0.00 | 0.00 | 0.00 | 62 | 1016.7 |
| 20260510162050 | 14 | 344 | 6.4 | 17.7 | 0.00 | 0.00 | 0.00 | 63 | 1016.4 |
| 20260510160551 | 14 | 8 | 6.4 | 17.7 | 0.00 | 0.00 | 0.00 | 66 | 1016.4 |
| 20260510155051 | 13 | 34 | 6.4 | 17.7 | 0.00 | 0.00 | 0.00 | 67 | 1016.2 |
| 20260510153550 | 13 | 53 | 4.8 | 16.1 | 0.00 | 0.00 | 0.00 | 65 | 1016.0 |
| 20260510152051 | 13 | 17 | 6.4 | 14.5 | 0.00 | 0.00 | 0.00 | 65 | 1016.0 |
| 20260510150551 | 12 | 68 | 8.0 | 14.5 | 0.00 | 0.00 | 0.00 | 66 | 1015.7 |
| 20260510145048 | 12 | 134 | 4.8 | 11.3 | 0.00 | 0.00 | 0.00 | 70 | 1015.7 |
| 20260510143548 | 12 | 71 | 8.0 | 16.1 | 0.00 | 0.00 | 0.00 | 70 | 1015.2 |
| 20260510142048 | 11 | 33 | 9.7 | 19.3 | 0.00 | 0.00 | 0.00 | 71 | 1015.0 |
| 20260510141242 | 11 | 20 | 8.0 | 16.1 | 0.00 | 0.00 | 0.00 | 73 | 1014.7 |
| 20260510135048 | 11 | 34 | 9.7 | 19.3 | 0.00 | 0.00 | 0.00 | 76 | 1014.5 |
| 20260510133548 | 10 | 41 | 8.0 | 14.5 | 0.00 | 0.00 | 0.00 | 79 | 1014.5 |
| 20260510132048 | 9 | 47 | 4.8 | 12.9 | 0.00 | 0.00 | 0.00 | 80 | 1014.6 |
| 20260510130548 | 9 | 15 | 4.8 | 9.7 | 0.00 | 0.00 | 0.00 | 81 | 1014.3 |
| 20260510125048 | 9 | 26 | 3.2 | 6.4 | 0.00 | 0.00 | 0.00 | 81 | 1014.3 |
| 20260510123548 | 8 | 27 | 1.6 | 3.2 | 0.00 | 0.00 | 0.00 | 80 | 1014.1 |
| 20260510122742 | 8 | 5 | 0.0 | 1.6 | 0.00 | 0.00 | 0.00 | 81 | 1013.8 |
| 20260510120544 | 8 | 1 | 0.0 | 1.6 | 0.00 | 0.00 | 0.00 | 80 | 1013.8 |
| 20260510115044 | 8 | 68 | 0.0 | 1.6 | 0.00 | 0.00 | 0.00 | 80 | 1013.3 |
| 20260510113544 | 8 | 24 | 0.0 | 1.6 | 0.00 | 0.00 | 0.00 | 80 | 1013.2 |
| 20260510112041 | 8 | 24 | 1.6 | 4.8 | 0.00 | 0.00 | 0.00 | 77 | 1012.9 |
| 20260510111236 | 8 | 64 | 0.0 | 3.2 | 0.00 | 0.00 | 0.00 | 78 | 1012.4 |
| 20260510105734 | 9 | 44 | 0.0 | 4.8 | 0.00 | 0.00 | 0.00 | 77 | 1012.4 |
| 20260510103538 | 9 | 6 | 3.2 | 11.3 | 0.00 | 0.00 | 0.00 | 71 | 1012.3 |
| 20260510102038 | 9 | 49 | 4.8 | 16.1 | 0.00 | 0.00 | 0.00 | 71 | 1012.0 |
| 20260510100539 | 9 | 38 | 6.4 | 12.9 | 0.00 | 0.00 | 0.00 | 73 | 1011.5 |
| 20260510095040 | 9 | 35 | 4.8 | 11.3 | 0.00 | 0.00 | 0.00 | 75 | 1011.1 |
| 20260510093536 | 10 | 50 | 8.0 | 14.5 | 0.00 | 0.00 | 0.00 | 75 | 1010.9 |
| 20260510092036 | 10 | 14 | 4.8 | 9.7 | 0.00 | 0.00 | 0.00 | 78 | 1010.7 |
| 20260510091924 | 10 | 46 | 8.0 | 12.9 | 0.00 | 0.00 | 0.00 | 77 | 1010.7 |
| 20260510085036 | 10 | 54 | 9.7 | 16.1 | 0.00 | 0.00 | 0.00 | 79 | 1010.1 |
| 20260510083533 | 11 | 36 | 6.4 | 19.3 | 0.00 | 0.00 | 0.00 | 82 | 1010.1 |
| 20260510082034 | 11 | 347 | 4.8 | 11.3 | 0.00 | 0.00 | 0.00 | 82 | 1010.1 |
| 20260510080534 | 12 | 348 | 3.2 | 9.7 | 0.00 | 0.05 | 0.00 | 82 | 1009.7 |
| 20260510075034 | 12 | 323 | 3.2 | 11.3 | 0.00 | 0.08 | 0.00 | 81 | 1009.6 |
| 20260510073534 | 13 | 13 | 6.4 | 12.9 | 0.00 | 0.10 | 0.00 | 80 | 1009.6 |
| 20260510072034 | 13 | 338 | 3.2 | 14.5 | 0.00 | 0.13 | 0.00 | 81 | 1009.3 |
| 20260510071232 | 14 | 318 | 4.8 | 9.7 | 0.00 | 0.15 | 0.00 | 80 | 1009.3 |
| 20260510065034 | 15 | 343 | 4.8 | 12.9 | 0.00 | 0.15 | 0.00 | 79 | 1009.1 |
| 20260510063533 | 15 | 219 | 3.2 | 12.9 | 0.00 | 0.15 | 0.00 | 78 | 1009.2 |
| 20260510062035 | 15 | 231 | 4.8 | 12.9 | 0.00 | 0.15 | 0.00 | 78 | 1009.1 |
| 20260510060531 | 15 | 212 | 4.8 | 12.9 | 0.00 | 0.15 | 0.00 | 78 | 1008.9 |
| 20260510055031 | 14 | 292 | 1.6 | 11.3 | 0.00 | 0.15 | 0.00 | 81 | 1008.8 |
| 20260510054946 | 13 | 201 | 0.0 | 1.6 | 0.00 | 0.18 | 0.00 | 82 | 1008.6 |
| 20260510052029 | 13 | 158 | 0.0 | 3.2 | 0.00 | 0.18 | 0.00 | 80 | 1008.6 |
| 20260510050529 | 13 | 167 | 0.0 | 3.2 | 0.00 | 0.18 | 0.00 | 79 | 1008.4 |
| 20260510045029 | 14 | 174 | 0.0 | 3.2 | 0.00 | 0.18 | 0.00 | 77 | 1008.6 |
| 20260510043528 | 15 | 238 | 1.6 | 8.0 | 0.00 | 0.18 | 0.00 | 77 | 1008.5 |
| 20260510042023 | 15 | 313 | 6.4 | 17.7 | 0.00 | 0.18 | 0.00 | 76 | 1008.5 |
| 20260510041220 | 16 | 329 | 1.6 | 11.3 | 0.00 | 0.18 | 0.00 | 75 | 1008.6 |
| 20260510035022 | 15 | 189 | 0.0 | 3.2 | 0.00 | 0.20 | 0.18 | 75 | 1008.0 |
| 20260510033521 | 15 | 188 | 0.0 | 9.7 | 0.00 | 0.20 | 0.18 | 75 | 1007.9 |
| 20260510032709 | 15 | 254 | 0.0 | 4.8 | 0.00 | 0.23 | 0.18 | 74 | 1007.9 |
| 20260510030522 | 15 | 181 | 0.0 | 6.4 | 0.00 | 0.23 | 0.18 | 74 | 1007.9 |
| 20260510025021 | 15 | 134 | 0.0 | 6.4 | 0.00 | 0.25 | 0.18 | 74 | 1007.8 |
| 20260510023522 | 15 | 213 | 0.0 | 9.7 | 0.00 | 0.25 | 0.18 | 74 | 1007.6 |
| 20260510022021 | 15 | 206 | 0.0 | 4.8 | 0.00 | 0.25 | 0.18 | 76 | 1007.6 |
| 20260510020521 | 15 | 155 | 0.0 | 1.6 | 0.00 | 0.28 | 0.18 | 77 | 1007.3 |
| 20260510015719 | 15 | 160 | 0.0 | 3.2 | 0.00 | 0.28 | 0.18 | 75 | 1007.0 |
| 20260510013522 | 16 | 60 | 0.0 | 4.8 | 0.00 | 0.28 | 0.18 | 73 | 1006.8 |
| 20260510012021 | 16 | 167 | 0.0 | 4.8 | 0.00 | 0.28 | 0.18 | 70 | 1006.6 |
| 20260510010522 | 17 | 221 | 0.0 | 4.8 | 0.00 | 0.28 | 0.18 | 67 | 1006.4 |
| 20260510005022 | 18 | 254 | 1.6 | 19.3 | 0.00 | 0.28 | 0.18 | 66 | 1006.4 |
| 20260510003522 | 18 | 211 | 1.6 | 12.9 | 0.00 | 0.28 | 0.18 | 66 | 1006.0 |
| 20260510002021 | 18 | 212 | 1.6 | 9.7 | 0.00 | 0.28 | 0.18 | 66 | 1005.8 |
| 20260510000520 | 18 | 132 | 1.6 | 11.3 | 0.00 | 0.28 | 0.18 | 64 | 1005.7 |
| 20260509235019 | 18 | 174 | 1.6 | 16.1 | 0.00 | 0.28 | 0.18 | 62 | 1005.6 |
| 20260509233519 | 19 | 207 | 3.2 | 17.7 | 0.00 | 0.30 | 0.18 | 60 | 1005.5 |
| 20260509232020 | 20 | 176 | 3.2 | 19.3 | 0.00 | 0.30 | 0.18 | 58 | 1005.4 |
| 20260509230519 | 20 | 231 | 4.8 | 17.7 | 0.00 | 0.30 | 0.18 | 57 | 1005.5 |
| 20260509225019 | 21 | 313 | 4.8 | 19.3 | 0.00 | 0.30 | 0.18 | 56 | 1005.3 |
| 20260509224210 | 21 | 254 | 6.4 | 17.7 | 0.00 | 0.30 | 0.18 | 56 | 1005.1 |
| 20260509222019 | 21 | 319 | 6.4 | 22.5 | 0.00 | 0.30 | 0.18 | 57 | 1005.1 |
| 20260509220519 | 21 | 352 | 4.8 | 22.5 | 0.00 | 0.30 | 0.18 | 58 | 1005.1 |
| 20260509215020 | 21 | 101 | 3.2 | 16.1 | 0.00 | 0.30 | 0.18 | 60 | 1005.1 |
| 20260509213519 | 21 | 184 | 6.4 | 20.9 | 0.00 | 0.30 | 0.18 | 61 | 1005.3 |
| 20260509212019 | 21 | 245 | 3.2 | 16.1 | 0.00 | 0.30 | 0.18 | 58 | 1005.4 |
| 20260509210519 | 21 | 262 | 3.2 | 17.7 | 0.00 | 0.30 | 0.18 | 59 | 1005.4 |
| 20260509205019 | 21 | 290 | 3.2 | 12.9 | 0.00 | 0.30 | 0.18 | 59 | 1005.5 |